Time;durP1;ratioP1;P1;durP2;ratioP2;P2;SDS_P1;SDS_P2;PMS_P1;PMS_P2;Temp;Humidity;BMP_temperature;BMP_pressure;BME280_temperature;BME280_humidity;BME280_pressure;Samples;Min_cycle;Max_cycle;Signal;HPM_P1;HPM_P2
2022/08/13 00:00:16;;;;;;;18.90;17.00;;;;;;;17.84;100.00;99049.21;105220;1269;61225;-73
2022/08/13 00:03:03;;;;;;;18.60;16.80;;;;;;;17.81;100.00;99048.55;105190;1269;75451;-72
2022/08/13 00:05:30;;;;;;;18.80;17.00;;;;;;;17.78;100.00;99049.70;105221;1268;69690;-73
2022/08/13 00:07:56;;;;;;;18.60;16.80;;;;;;;17.76;100.00;99048.69;105266;1268;72614;-73
2022/08/13 00:10:30;;;;;;;20.30;16.90;;;;;;;17.73;100.00;99047.80;105204;1269;61330;-73
2022/08/13 00:12:57;;;;;;;18.40;16.50;;;;;;;17.71;100.00;99050.04;105216;1269;61278;-72
2022/08/13 00:15:39;;;;;;;17.00;15.30;;;;;;;17.68;100.00;99044.95;105195;1268;75214;-73
2022/08/13 00:18:09;;;;;;;18.80;17.10;;;;;;;17.63;100.00;99039.34;105231;1272;70173;-73
2022/08/13 00:20:48;;;;;;;19.50;17.50;;;;;;;17.57;100.00;99038.61;105215;1272;73197;-73
2022/08/13 00:23:17;;;;;;;19.10;17.20;;;;;;;17.54;100.00;99033.52;105244;1268;61268;-73
2022/08/13 00:25:46;;;;;;;19.00;17.20;;;;;;;17.52;100.00;99026.32;105288;1271;61321;-72
2022/08/13 00:28:19;;;;;;;20.30;18.40;;;;;;;17.51;100.00;99019.61;105304;1269;76276;-74
2022/08/13 00:30:47;;;;;;;22.10;20.10;;;;;;;17.50;100.00;99020.92;104951;1268;68792;-72
2022/08/13 00:33:20;;;;;;;20.40;18.50;;;;;;;17.49;100.00;99021.63;105214;1271;73172;-72
2022/08/13 00:35:50;;;;;;;20.70;18.70;;;;;;;17.47;100.00;99027.75;105353;1268;61412;-72
2022/08/13 00:38:20;;;;;;;20.70;18.70;;;;;;;17.45;100.00;99034.90;105277;1269;62031;-72
2022/08/13 00:40:49;;;;;;;;;;;;;;;17.44;100.00;99035.76;105258;1269;75120;-72
2022/08/13 00:43:16;;;;;;;20.60;18.50;;;;;;;17.44;100.00;99033.61;105241;1271;68575;-71
2022/08/13 00:45:43;;;;;;;20.80;18.80;;;;;;;17.44;100.00;99026.04;105227;1271;74239;-72
2022/08/13 00:50:58;;;;;;;22.40;20.10;;;;;;;17.42;100.00;99028.69;105242;1271;61797;-72
2022/08/13 00:53:25;;;;;;;22.40;20.00;;;;;;;17.44;100.00;99026.06;105352;1271;76131;-71
2022/08/13 00:55:58;;;;;;;22.80;20.50;;;;;;;17.47;100.00;99025.37;105284;1268;67122;-71
2022/08/13 00:58:27;;;;;;;24.80;18.90;;;;;;;17.51;100.00;99021.92;105080;1272;72821;-72
2022/08/13 01:00:58;;;;;;;23.40;21.00;;;;;;;17.54;100.00;99018.20;105033;1271;61303;-72
2022/08/13 01:03:29;;;;;;;21.70;19.40;;;;;;;17.58;100.00;99010.33;105216;1271;62034;-72
2022/08/13 01:05:59;;;;;;;19.90;18.00;;;;;;;17.60;100.00;99008.14;105259;1271;74290;-72
2022/08/13 01:08:31;;;;;;;21.10;19.00;;;;;;;17.62;100.00;99009.06;105383;1268;69397;-73
2022/08/13 01:11:06;;;;;;;20.30;18.40;;;;;;;17.63;100.00;99002.85;105396;1268;73359;-71
2022/08/13 01:13:33;;;;;;;19.80;17.90;;;;;;;17.65;100.00;98999.45;105281;1272;61361;-73
2022/08/13 01:16:06;;;;;;;22.10;20.00;;;;;;;17.67;100.00;98994.02;105283;1268;61553;-72
2022/08/13 01:18:36;;;;;;;19.80;17.80;;;;;;;17.69;100.00;98985.92;104971;1274;76355;-73
2022/08/13 01:21:18;;;;;;;19.90;18.10;;;;;;;17.69;100.00;98981.02;105241;1268;68175;-72
2022/08/13 01:23:48;;;;;;;21.70;19.60;;;;;;;17.71;100.00;98982.30;105234;1271;72835;-73
2022/08/13 01:26:15;;;;;;;;;;;;;;;17.72;100.00;98982.71;105224;1272;61363;-72
2022/08/13 01:28:44;;;;;;;20.30;18.30;;;;;;;17.72;100.00;98980.71;105234;1271;61338;-73
2022/08/13 01:31:14;;;;;;;21.20;19.20;;;;;;;17.73;100.00;98972.91;105213;1268;76103;-73
2022/08/13 01:33:43;;;;;;;22.20;20.00;;;;;;;17.74;100.00;98968.70;105066;1274;69667;-73
2022/08/13 01:36:11;;;;;;;21.80;19.60;;;;;;;17.76;100.00;98967.58;105262;1271;73158;-73
2022/08/13 01:38:40;;;;;;;22.70;20.40;;;;;;;17.77;100.00;98965.68;105279;1270;61255;-72
2022/08/13 01:41:11;;;;;;;24.90;21.00;;;;;;;17.78;100.00;98967.94;105178;1271;61303;-73
2022/08/13 01:43:40;;;;;;;24.10;21.70;;;;;;;17.80;100.00;98966.19;105192;1268;75413;-73
2022/08/13 01:46:09;;;;;;;25.50;23.00;;;;;;;17.80;100.00;98955.58;105245;1271;69140;-72
2022/08/13 01:51:28;;;;;;;26.30;23.50;;;;;;;17.85;100.00;98963.23;105196;1271;61268;-73
2022/08/13 01:53:59;;;;;;;26.40;23.40;;;;;;;17.86;100.00;98966.70;105287;1271;61419;-72
2022/08/13 01:56:29;;;;;;;25.40;22.80;;;;;;;17.87;100.00;98961.05;105159;1271;75227;-71
2022/08/13 01:59:01;;;;;;;26.40;23.70;;;;;;;17.87;100.00;98963.85;105246;1269;70192;-72
2022/08/13 02:01:30;;;;;;;26.60;23.90;;;;;;;17.89;100.00;98966.16;105266;1271;73935;-73
2022/08/13 02:03:58;;;;;;;24.90;22.40;;;;;;;17.91;100.00;98964.36;105266;1271;61285;-72
2022/08/13 02:06:28;;;;;;;27.10;24.20;;;;;;;17.93;100.00;98963.11;105263;1271;61361;-72
2022/08/13 02:08:59;;;;;;;28.80;25.60;;;;;;;17.94;100.00;98960.11;105271;1271;76507;-72
2022/08/13 02:11:35;;;;;;;25.90;23.10;;;;;;;17.96;100.00;98963.48;105293;1271;69989;-73
2022/08/13 02:14:04;;;;;;;26.20;23.60;;;;;;;17.98;100.00;98963.48;105264;1270;73238;-72
2022/08/13 02:16:37;;;;;;;24.60;22.30;;;;;;;17.97;100.00;98959.52;105236;1271;61351;-72
2022/08/13 02:19:07;;;;;;;22.50;20.40;;;;;;;17.94;100.00;98961.77;105175;1271;61953;-73
2022/08/13 02:21:35;;;;;;;;;;;;;;;17.93;100.00;98963.10;105308;1271;76258;-72
2022/08/13 02:24:03;;;;;;;22.60;20.40;;;;;;;17.91;100.00;98963.52;104911;1271;68682;-72
2022/08/13 02:26:32;;;;;;;22.50;20.30;;;;;;;17.89;100.00;98967.23;105194;1271;72637;-72
2022/08/13 02:29:00;;;;;;;23.10;21.00;;;;;;;17.87;100.00;98959.94;105217;1271;61278;-73
2022/08/13 02:31:28;;;;;;;22.00;19.90;;;;;;;17.84;100.00;98960.23;105228;1271;61867;-72
2022/08/13 02:33:57;;;;;;;23.40;21.10;;;;;;;17.81;100.00;98961.59;105245;1271;75606;-72
2022/08/13 02:36:25;;;;;;;23.30;21.00;;;;;;;17.79;100.00;98960.55;105198;1271;69290;-71
2022/08/13 02:38:59;;;;;;;21.20;19.10;;;;;;;17.74;100.00;98960.42;104994;1272;71674;-73
2022/08/13 02:41:40;;;;;;;21.50;19.50;;;;;;;17.69;100.00;98965.95;105217;1271;61233;-73
2022/08/13 02:44:14;;;;;;;20.50;18.60;;;;;;;17.67;100.00;98962.05;105062;1274;61507;-73
2022/08/13 02:46:44;;;;;;;22.00;19.90;;;;;;;17.65;100.00;98962.26;105248;1269;75467;-74
2022/08/13 02:49:12;;;;;;;20.50;18.50;;;;;;;17.64;100.00;98958.17;105230;1271;70371;-73
2022/08/13 02:51:39;;;;;;;20.90;19.10;;;;;;;17.65;100.00;98960.45;105194;1271;74244;-72
2022/08/13 02:54:06;;;;;;;23.20;20.90;;;;;;;17.66;100.00;98959.27;105188;1271;61309;-73
2022/08/13 02:56:36;;;;;;;22.10;19.80;;;;;;;17.66;100.00;98960.52;105013;1272;62123;-73
2022/08/13 02:59:10;;;;;;;22.60;20.40;;;;;;;17.65;100.00;98956.80;105249;1271;76424;-74
2022/08/13 03:01:40;;;;;;;22.50;20.40;;;;;;;17.65;100.00;98955.55;104978;1271;69131;-73
2022/08/13 03:04:08;;;;;;;22.90;20.70;;;;;;;17.63;100.00;98952.90;105253;1269;73332;-73
2022/08/13 03:06:35;;;;;;;20.50;18.70;;;;;;;17.60;100.00;98957.84;105258;1271;61410;-73
2022/08/13 03:09:04;;;;;;;20.70;18.70;;;;;;;17.58;100.00;98957.68;105233;1271;61290;-73
2022/08/13 03:11:36;;;;;;;22.10;19.90;;;;;;;17.55;100.00;98954.14;105341;1271;75166;-73
2022/08/13 03:14:05;;;;;;;21.60;19.60;;;;;;;17.56;100.00;98952.10;105226;1271;69935;-72
2022/08/13 03:16:32;;;;;;;21.40;19.40;;;;;;;17.56;100.00;98950.12;105009;1272;73174;-73
2022/08/13 03:18:58;;;;;;;21.20;19.20;;;;;;;17.55;100.00;98945.95;105205;1271;61260;-72
2022/08/13 03:21:28;;;;;;;21.10;18.90;;;;;;;17.54;100.00;98946.04;105241;1271;61269;-72
2022/08/13 03:23:55;;;;;;;21.20;19.20;;;;;;;17.51;100.00;98951.53;105249;1269;75208;-72
2022/08/13 03:26:22;;;;;;;21.60;19.50;;;;;;;17.49;100.00;98952.75;105229;1271;69280;-71
2022/08/13 03:28:51;;;;;;;21.60;19.70;;;;;;;17.50;100.00;98952.89;105221;1269;61827;-72
2022/08/13 03:31:18;;;;;;;20.50;18.30;;;;;;;17.52;100.00;98950.77;105192;1268;61358;-74
2022/08/13 03:33:46;;;;;;;21.30;19.20;;;;;;;17.51;100.00;98948.43;105222;1268;61365;-74
2022/08/13 03:36:14;;;;;;;21.80;19.80;;;;;;;17.47;100.00;98946.36;105290;1269;76324;-74
2022/08/13 03:38:40;;;;;;;20.60;18.70;;;;;;;17.46;100.00;98942.53;105326;1269;70369;-76
2022/08/13 03:41:11;;;;;;;21.60;19.60;;;;;;;17.44;100.00;98945.71;105204;1271;73192;-75
2022/08/13 03:43:42;;;;;;;21.50;19.50;;;;;;;17.44;100.00;98943.79;105241;1269;61409;-74
2022/08/13 03:46:17;;;;;;;22.10;19.90;;;;;;;17.41;100.00;98944.39;105273;1268;61290;-74
2022/08/13 03:48:47;;;;;;;21.00;19.10;;;;;;;17.39;100.00;98944.92;105235;1268;75414;-74
2022/08/13 03:51:16;;;;;;;21.20;19.30;;;;;;;17.38;100.00;98945.45;105335;1268;67708;-74
2022/08/13 03:53:44;;;;;;;22.30;20.20;;;;;;;17.37;100.00;98942.44;105222;1268;74409;-74
2022/08/13 03:56:13;;;;;;;21.70;19.70;;;;;;;17.37;100.00;98944.63;105251;1268;61455;-74
2022/08/13 03:58:40;;;;;;;22.50;20.30;;;;;;;17.38;100.00;98946.48;105042;1268;61333;-74
2022/08/13 04:01:07;;;;;;;21.50;19.30;;;;;;;17.41;100.00;98939.26;105198;1268;76082;-74
2022/08/13 04:03:40;;;;;;;21.60;19.60;;;;;;;17.42;100.00;98940.19;105209;1268;69224;-73
2022/08/13 04:06:09;;;;;;;21.40;19.20;;;;;;;17.44;100.00;98939.24;105179;1268;74228;-74
2022/08/13 04:08:37;;;;;;;21.60;19.40;;;;;;;17.46;100.00;98940.86;105354;1268;61685;-74
2022/08/13 04:11:10;;;;;;;22.20;20.10;;;;;;;17.48;100.00;98940.99;105275;1268;61982;-76
2022/08/13 04:13:39;;;;;;;23.40;21.00;;;;;;;17.51;100.00;98936.27;105040;1271;76177;-74
2022/08/13 04:16:07;;;;;;;22.70;20.60;;;;;;;17.55;100.00;98928.30;104995;1272;70203;-74
2022/08/13 04:18:37;;;;;;;21.70;19.70;;;;;;;17.59;100.00;98929.40;105185;1268;74176;-74
2022/08/13 04:21:08;;;;;;;21.00;19.00;;;;;;;17.61;100.00;98935.25;105213;1268;61370;-75
2022/08/13 04:23:39;;;;;;;21.50;19.60;;;;;;;17.63;100.00;98940.70;105315;1268;62381;-73
2022/08/13 04:26:06;;;;;;;21.20;19.20;;;;;;;17.63;100.00;98939.28;105038;1271;75686;-73
2022/08/13 04:28:33;;;;;;;21.20;19.00;;;;;;;17.63;100.00;98942.08;105033;1271;69248;-74
2022/08/13 04:31:00;;;;;;;21.20;19.20;;;;;;;17.62;100.00;98939.48;105253;1271;61351;-76
2022/08/13 04:33:27;;;;;;;22.70;20.60;;;;;;;17.63;100.00;98939.08;105360;1268;61368;-75
2022/08/13 04:35:54;;;;;;;22.50;20.20;;;;;;;17.64;100.00;98938.09;105298;1270;61394;-76
2022/08/13 04:38:20;;;;;;;24.00;21.60;;;;;;;17.66;100.00;98931.95;105281;1268;75926;-75
2022/08/13 04:40:47;;;;;;;25.40;22.80;;;;;;;17.67;100.00;98932.89;105201;1271;69170;-75
2022/08/13 04:43:15;;;;;;;25.80;23.10;;;;;;;17.66;100.00;98935.89;105263;1271;73328;-75
2022/08/13 04:45:42;;;;;;;29.70;26.80;;;;;;;17.65;100.00;98936.38;105310;1270;61319;-75
2022/08/13 04:48:12;;;;;;;31.90;28.70;;;;;;;17.66;100.00;98935.17;105368;1271;61367;-73
2022/08/13 04:50:44;;;;;;;32.10;28.90;;;;;;;17.65;100.00;98933.63;105274;1271;76277;-73
2022/08/13 04:53:31;;;;;;;31.90;28.50;;;;;;;17.64;100.00;98934.68;105256;1271;70753;-74
2022/08/13 04:56:00;;;;;;;30.10;27.10;;;;;;;17.63;100.00;98930.64;105338;1271;71829;-73
2022/08/13 04:58:32;;;;;;;26.30;23.70;;;;;;;17.65;100.00;98935.66;105265;1271;61361;-74
2022/08/13 05:01:00;;;;;;;25.70;23.10;;;;;;;17.70;100.00;98933.36;105143;1271;61149;-74
2022/08/13 05:03:28;;;;;;;23.70;21.40;;;;;;;17.77;100.00;98929.98;105196;1271;76177;-74
2022/08/13 05:05:56;;;;;;;24.30;22.00;;;;;;;17.83;100.00;98931.77;105009;1272;70163;-74
2022/08/13 05:08:23;;;;;;;21.60;19.50;;;;;;;17.89;100.00;98929.36;105264;1268;74030;-73
2022/08/13 05:10:51;;;;;;;22.80;20.50;;;;;;;17.96;100.00;98927.77;105172;1271;61324;-73
2022/08/13 05:13:32;;;;;;;21.90;19.80;;;;;;;18.05;100.00;98925.63;105298;1270;61276;-75
2022/08/13 05:16:02;;;;;;;22.40;20.20;;;;;;;18.14;100.00;98926.67;105301;1269;75903;-74
2022/08/13 05:18:32;;;;;;;21.50;19.30;;;;;;;18.22;100.00;98927.76;105072;1272;69162;-75
2022/08/13 05:21:04;;;;;;;22.40;20.30;;;;;;;18.26;100.00;98933.45;105262;1270;74441;-75
2022/08/13 05:23:34;;;;;;;21.30;19.30;;;;;;;18.31;100.00;98932.39;105000;1271;61390;-76
2022/08/13 05:26:00;;;;;;;;;;;;;;;18.36;100.00;98932.98;105266;1271;61302;-74
2022/08/13 05:28:27;;;;;;;20.60;18.40;;;;;;;18.37;100.00;98933.55;105270;1271;75153;-74
2022/08/13 05:30:54;;;;;;;22.60;20.20;;;;;;;18.38;100.00;98934.05;105232;1271;70072;-74
2022/08/13 05:33:23;;;;;;;22.60;20.50;;;;;;;18.36;100.00;98937.85;105209;1268;61337;-74
2022/08/13 05:35:54;;;;;;;22.30;20.10;;;;;;;18.34;100.00;98938.70;105212;1271;61363;-73
2022/08/13 05:38:22;;;;;;;21.50;19.20;;;;;;;18.38;100.00;98938.71;105578;1270;61118;-75
2022/08/13 05:40:50;;;;;;;23.60;20.90;;;;;;;18.42;100.00;98934.56;106017;1269;73747;-74
2022/08/13 05:43:20;;;;;;;25.30;21.70;;;;;;;18.47;100.00;98929.31;105670;1269;69201;-74
2022/08/13 05:45:57;;;;;;;26.10;22.20;;;;;;;18.56;100.00;98925.89;105285;1268;73689;-74
2022/08/13 05:48:29;;;;;;;28.80;23.50;;;;;;;18.64;100.00;98920.05;105316;1271;61316;-73
2022/08/13 05:50:59;;;;;;;32.60;23.80;;;;;;;18.72;100.00;98920.36;105247;1271;61358;-74
2022/08/13 05:53:26;;;;;;;29.50;23.30;;;;;;;18.80;100.00;98920.09;105236;1271;75669;-73
2022/08/13 05:55:54;;;;;;;29.50;24.30;;;;;;;18.86;100.00;98922.02;105232;1271;68627;-74
2022/08/13 05:58:21;;;;;;;27.60;23.30;;;;;;;18.91;100.00;98920.97;105298;1271;74204;-73
2022/08/13 06:03:35;;;;;;;26.40;23.00;;;;;;;19.02;100.00;98926.62;105243;1271;61293;-75
2022/08/13 06:06:08;;;;;;;25.80;22.60;;;;;;;19.04;100.00;98925.21;105289;1271;76092;-73
2022/08/13 06:08:42;;;;;;;26.90;23.60;;;;;;;19.06;100.00;98923.40;105223;1270;70214;-74
2022/08/13 06:11:15;;;;;;;25.40;22.90;;;;;;;19.09;100.00;98923.09;105210;1271;74166;-74
2022/08/13 06:13:45;;;;;;;26.80;24.10;;;;;;;19.11;100.00;98920.66;105342;1271;61308;-74
2022/08/13 06:16:17;;;;;;;26.20;23.10;;;;;;;19.13;100.00;98922.77;105213;1271;61577;-75
2022/08/13 06:18:46;;;;;;;25.30;22.70;;;;;;;19.21;100.00;98921.27;105303;1271;76246;-73
2022/08/13 06:21:14;;;;;;;25.80;22.80;;;;;;;19.29;100.00;98925.69;105306;1271;67407;-76
2022/08/13 06:23:44;;;;;;;25.00;22.30;;;;;;;19.38;100.00;98924.19;104913;1271;73144;-75
2022/08/13 06:26:15;;;;;;;23.90;21.40;;;;;;;19.46;100.00;98922.27;105296;1270;61368;-74
2022/08/13 06:28:44;;;;;;;23.90;21.50;;;;;;;19.54;100.00;98928.08;105238;1271;61519;-75
2022/08/13 06:31:16;;;;;;;22.10;20.00;;;;;;;19.62;100.00;98930.84;105298;1268;75189;-75
2022/08/13 06:33:45;;;;;;;23.10;20.90;;;;;;;19.68;100.00;98927.17;105227;1271;70429;-75
2022/08/13 06:36:14;;;;;;;22.50;20.20;;;;;;;19.69;100.00;98930.84;104933;1271;73222;-73
2022/08/13 06:38:40;;;;;;;23.50;20.90;;;;;;;19.68;100.00;98927.93;105278;1271;61379;-76
2022/08/13 06:41:08;;;;;;;22.10;19.90;;;;;;;19.67;100.00;98923.20;105242;1271;61288;-74
2022/08/13 06:43:41;;;;;;;23.10;20.70;;;;;;;19.62;100.00;98924.89;105012;1268;74886;-76
2022/08/13 06:46:09;;;;;;;19.90;18.00;;;;;;;19.59;100.00;98925.63;105250;1271;68895;-74
2022/08/13 06:48:36;;;;;;;22.50;20.10;;;;;;;19.60;100.00;98925.46;105223;1267;73560;-76
2022/08/13 06:51:06;;;;;;;20.20;18.30;;;;;;;19.60;100.00;98926.38;105322;1271;61307;-74
2022/08/13 06:53:35;;;;;;;18.90;17.00;;;;;;;19.62;100.00;98923.48;105074;1271;61618;-74
2022/08/13 06:56:05;;;;;;;19.00;17.10;;;;;;;19.64;100.00;98917.61;105334;1271;75600;-74
2022/08/13 06:58:32;;;;;;;18.10;16.20;;;;;;;19.75;100.00;98913.77;105047;1271;68933;-74
2022/08/13 07:00:59;;;;;;;17.40;15.70;;;;;;;19.88;100.00;98914.08;105232;1269;72755;-74
2022/08/13 07:03:29;;;;;;;16.50;15.00;;;;;;;19.91;100.00;98917.64;105181;1271;61288;-75
2022/08/13 07:05:59;;;;;;;15.70;14.10;;;;;;;19.88;100.00;98921.27;105143;1271;61335;-73
2022/08/13 07:08:30;;;;;;;15.50;14.00;;;;;;;19.84;100.00;98920.45;105360;1271;76135;-75
2022/08/13 07:13:47;;;;;;;16.70;14.90;;;;;;;19.78;100.00;98916.98;105030;1271;71509;-73
2022/08/13 07:16:16;;;;;;;15.00;13.60;;;;;;;19.75;100.00;98917.81;105277;1271;61368;-72
2022/08/13 07:18:47;;;;;;;15.40;14.00;;;;;;;19.69;100.00;98914.21;105364;1269;61336;-74
2022/08/13 07:21:16;;;;;;;16.30;14.70;;;;;;;19.65;100.00;98916.13;105290;1271;75220;-74
2022/08/13 07:23:43;;;;;;;15.40;13.90;;;;;;;19.64;100.00;98915.31;105298;1269;70234;-76
2022/08/13 07:26:13;;;;;;;15.80;14.20;;;;;;;19.66;100.00;98914.02;105246;1271;74435;-75
2022/08/13 07:28:41;;;;;;;16.00;14.30;;;;;;;19.70;100.00;98917.70;105224;1268;61393;-75
2022/08/13 07:31:09;;;;;;;17.10;15.30;;;;;;;19.71;100.00;98914.98;105284;1270;62102;-73
2022/08/13 07:33:38;;;;;;;16.50;14.90;;;;;;;19.73;100.00;98910.75;105250;1268;75978;-74
2022/08/13 07:36:12;;;;;;;18.90;16.60;;;;;;;19.81;100.00;98914.97;105413;1271;69267;-74
2022/08/13 07:38:40;;;;;;;18.30;16.60;;;;;;;19.90;100.00;98916.69;105272;1269;74174;-74
2022/08/13 07:41:10;;;;;;;16.50;14.80;;;;;;;20.01;100.00;98912.33;105325;1268;61490;-74
2022/08/13 07:43:40;;;;;;;15.90;14.20;;;;;;;20.10;100.00;98915.11;105244;1268;60716;-76
2022/08/13 07:46:10;;;;;;;15.20;13.80;;;;;;;20.19;100.00;98913.31;105159;1268;74924;-74
2022/08/13 07:48:39;;;;;;;15.50;14.00;;;;;;;20.24;100.00;98913.83;105205;1271;69367;-73
2022/08/13 07:51:27;;;;;;;15.20;13.70;;;;;;;20.30;100.00;98919.05;105347;1269;74637;-75
2022/08/13 07:53:56;;;;;;;15.80;14.40;;;;;;;20.32;100.00;98913.43;105259;1270;61284;-74
2022/08/13 07:56:28;;;;;;;14.10;12.90;;;;;;;20.34;100.00;98913.20;105278;1268;61333;-74
2022/08/13 07:59:00;;;;;;;15.20;13.60;;;;;;;20.34;100.00;98914.89;105259;1271;73531;-74
2022/08/13 08:01:27;;;;;;;14.20;12.90;;;;;;;20.33;100.00;98917.09;105265;1268;70494;-74
2022/08/13 08:03:58;;;;;;;14.30;13.10;;;;;;;20.33;100.00;98918.80;105183;1271;73912;-74
2022/08/13 08:06:26;;;;;;;14.10;12.70;;;;;;;20.30;100.00;98915.47;105349;1270;61253;-75
2022/08/13 08:08:53;;;;;;;14.90;13.40;;;;;;;20.25;100.00;98921.05;105242;1269;61279;-74
2022/08/13 08:14:07;;;;;;;14.60;13.20;;;;;;;20.05;100.00;98923.05;105231;1268;70337;-75
2022/08/13 08:16:36;;;;;;;14.80;13.30;;;;;;;20.01;100.00;98919.83;105077;1271;74355;-74
2022/08/13 08:19:04;;;;;;;15.80;14.40;;;;;;;19.96;100.00;98917.14;105215;1268;61286;-75
2022/08/13 08:21:32;;;;;;;15.70;14.20;;;;;;;19.96;100.00;98920.25;105254;1268;61229;-75
2022/08/13 08:24:01;;;;;;;17.20;15.60;;;;;;;19.96;100.00;98920.44;105339;1268;75397;-74
2022/08/13 08:26:34;;;;;;;17.30;15.50;;;;;;;19.94;100.00;98920.24;105071;1271;67796;-75
2022/08/13 08:29:05;;;;;;;18.20;16.40;;;;;;;19.90;100.00;98914.02;105246;1268;74242;-75
2022/08/13 08:31:33;;;;;;;19.00;17.00;;;;;;;19.90;100.00;98912.15;105134;1268;61452;-75
2022/08/13 08:34:01;;;;;;;21.70;18.80;;;;;;;19.96;100.00;98905.82;105220;1268;61304;-73
2022/08/13 08:36:30;;;;;;;23.00;18.90;;;;;;;20.04;100.00;98901.20;105208;1268;75340;-74
2022/08/13 08:44:32;;;;;;;19.50;17.50;;;;;;;20.58;100.00;98894.22;105013;1271;61377;-74
2022/08/13 08:47:02;;;;;;;17.60;15.80;;;;;;;20.71;100.00;98896.16;104978;1271;61304;-73
2022/08/13 08:49:30;;;;;;;16.40;14.70;;;;;;;20.86;100.00;98893.48;105052;1271;75286;-74
2022/08/13 08:51:58;;;;;;;16.20;14.60;;;;;;;21.02;100.00;98891.65;105279;1268;68858;-74
2022/08/13 08:54:26;;;;;;;17.60;15.80;;;;;;;21.09;100.00;98889.82;105236;1268;74301;-74
2022/08/13 08:56:54;;;;;;;15.30;13.90;;;;;;;21.03;100.00;98890.23;105090;1271;61275;-74
2022/08/13 08:59:27;;;;;;;16.70;15.20;;;;;;;20.91;100.00;98897.47;105059;1271;61365;-74
2022/08/13 09:01:56;;;;;;;15.70;14.20;;;;;;;20.81;100.00;98897.09;105357;1268;75018;-75
2022/08/13 09:04:28;;;;;;;15.70;14.00;;;;;;;20.74;100.00;98898.73;105143;1271;69131;-75
2022/08/13 09:06:57;;;;;;;15.90;14.40;;;;;;;20.66;100.00;98897.31;105233;1269;73633;-73
2022/08/13 09:09:26;;;;;;;19.20;17.20;;;;;;;20.57;100.00;98901.16;105364;1269;61249;-76
2022/08/13 09:11:55;;;;;;;18.80;16.90;;;;;;;20.42;100.00;98900.31;105326;1268;61266;-74
2022/08/13 09:14:30;;;;;;;17.80;16.10;;;;;;;20.31;100.00;98896.94;105355;1268;76313;-75
2022/08/13 09:16:59;;;;;;;20.00;17.90;;;;;;;20.24;100.00;98894.54;105266;1268;69139;-74
2022/08/13 09:19:27;;;;;;;22.20;19.80;;;;;;;20.20;100.00;98893.31;105272;1269;74406;-73
2022/08/13 09:21:53;;;;;;;20.90;18.30;;;;;;;20.23;100.00;98894.75;105271;1268;61466;-74
2022/08/13 09:24:24;;;;;;;20.50;18.40;;;;;;;20.32;100.00;98889.79;105249;1268;62092;-75
2022/08/13 09:26:52;;;;;;;21.80;19.00;;;;;;;20.45;100.00;98890.95;105240;1269;73287;-74
2022/08/13 09:29:22;;;;;;;20.40;17.00;;;;;;;20.49;100.00;98888.35;105232;1268;69430;-75
2022/08/13 09:31:50;;;;;;;22.20;19.80;;;;;;;20.50;100.00;98891.15;105285;1269;73185;-75
2022/08/13 09:34:18;;;;;;;21.20;19.00;;;;;;;20.56;100.00;98890.34;104944;1271;61280;-74
2022/08/13 09:36:45;;;;;;;24.70;20.50;;;;;;;20.58;100.00;98885.36;105265;1271;61323;-75
2022/08/13 09:39:31;;;;;;;21.30;19.10;;;;;;;20.67;100.00;98884.55;105265;1271;76938;-74
2022/08/13 09:42:00;;;;;;;20.20;18.10;;;;;;;20.76;100.00;98883.00;105234;1270;70221;-75
2022/08/13 09:44:28;;;;;;;18.80;15.60;;;;;;;20.80;100.00;98883.83;105199;1270;73810;-74
2022/08/13 09:46:55;;;;;;;18.30;16.40;;;;;;;20.81;100.00;98883.48;104121;1271;1249571;-75
2022/08/13 09:49:23;;;;;;;18.40;16.50;;;;;;;20.83;100.00;98882.95;104928;1271;61250;-75
2022/08/13 09:51:50;;;;;;;17.80;15.60;;;;;;;20.83;100.00;98879.33;105357;1271;75283;-73
2022/08/13 09:54:18;;;;;;;17.60;15.80;;;;;;;20.87;100.00;98874.00;105248;1271;69174;-74
2022/08/13 09:56:47;;;;;;;17.60;15.80;;;;;;;20.96;100.00;98873.73;105410;1271;73933;-74
2022/08/13 09:59:15;;;;;;;16.50;14.80;;;;;;;21.08;100.00;98870.40;105850;1271;61307;-74
2022/08/13 10:01:42;;;;;;;16.60;15.00;;;;;;;21.23;100.00;98863.66;105969;1269;62096;-74
2022/08/13 10:04:11;;;;;;;16.10;14.50;;;;;;;21.37;100.00;98863.50;105333;1271;75367;-73
2022/08/13 10:06:38;;;;;;;15.90;14.30;;;;;;;21.40;100.00;98860.24;105254;1270;69360;-74
2022/08/13 10:09:05;;;;;;;15.60;14.10;;;;;;;21.34;100.00;98859.36;105285;1270;72729;-74
2022/08/13 10:11:31;;;;;;;15.90;14.30;;;;;;;21.24;100.00;98859.35;105213;1271;61297;-74
2022/08/13 10:13:58;;;;;;;14.30;12.80;;;;;;;21.15;100.00;98848.91;105220;1271;61995;-74
2022/08/13 10:16:25;;;;;;;14.50;13.10;;;;;;;21.17;100.00;98842.81;105189;1271;75155;-74
2022/08/13 10:18:51;;;;;;;18.30;16.50;;;;;;;21.34;100.00;98841.41;105208;1271;61265;-74
2022/08/13 10:21:30;;;;;;;15.60;14.00;;;;;;;21.56;100.00;98836.25;105171;1271;61393;-75
2022/08/13 10:23:57;;;;;;;15.10;13.50;;;;;;;21.79;100.00;98837.41;104958;1271;61273;-74
2022/08/13 10:26:24;;;;;;;14.40;13.00;;;;;;;21.95;100.00;98837.27;105202;1271;61335;-75
2022/08/13 10:44:37;;;;;;;11.80;10.80;;;;;;;23.93;100.00;98821.05;105257;1271;61250;-74
2022/08/13 10:47:04;;;;;;;11.70;10.60;;;;;;;23.94;100.00;98819.52;105279;1270;76457;-74
2022/08/13 10:49:31;;;;;;;12.50;11.20;;;;;;;23.82;100.00;98820.44;104931;1272;68850;-74
2022/08/13 10:51:59;;;;;;;12.50;11.40;;;;;;;23.72;100.00;98816.41;104951;1271;72133;-73
2022/08/13 10:54:25;;;;;;;12.40;11.30;;;;;;;23.58;100.00;98820.16;105255;1271;61265;-74
2022/08/13 10:56:52;;;;;;;13.40;12.20;;;;;;;23.41;100.00;98816.15;105208;1270;61193;-72
2022/08/13 10:59:19;;;;;;;12.10;11.00;;;;;;;23.28;100.00;98813.46;105230;1271;61291;-75
2022/08/13 11:01:45;;;;;;;11.90;10.80;;;;;;;23.10;100.00;98816.02;105216;1271;68905;-74
2022/08/13 11:04:12;;;;;;;12.50;11.40;;;;;;;22.99;100.00;98811.89;105263;1271;61275;-74
2022/08/13 11:06:38;;;;;;;12.30;11.10;;;;;;;22.97;100.00;98812.30;105004;1271;61426;-74
2022/08/13 11:09:06;;;;;;;12.60;11.50;;;;;;;23.03;100.00;98812.36;105251;1271;61975;-74
2022/08/13 11:11:34;;;;;;;12.60;11.50;;;;;;;23.17;100.00;98812.61;104968;1271;75340;-76
2022/08/13 11:14:01;;;;;;;12.50;11.30;;;;;;;23.28;100.00;98810.98;105265;1269;69118;-75
2022/08/13 11:19:14;;;;;;;14.80;13.40;;;;;;;23.40;100.00;98806.72;105282;1271;61355;-73
2022/08/13 11:21:43;;;;;;;14.10;12.70;;;;;;;23.49;100.00;98805.12;105265;1271;62025;-74
2022/08/13 11:24:10;;;;;;;15.60;14.00;;;;;;;23.54;100.00;98797.80;105353;1271;76346;-74
2022/08/13 11:26:38;;;;;;;13.70;12.50;;;;;;;23.60;100.00;98797.04;105200;1271;69021;-73
2022/08/13 11:29:05;;;;;;;13.40;12.10;;;;;;;23.76;100.00;98798.38;105230;1271;71324;-73
2022/08/13 11:31:32;;;;;;;10.90;9.70;;;;;;;23.98;100.00;98792.06;105297;1271;61308;-73
2022/08/13 11:33:58;;;;;;;9.90;9.10;;;;;;;24.29;100.00;98789.66;105179;1271;61393;-74
2022/08/13 11:36:25;;;;;;;9.10;8.30;;;;;;;24.67;100.00;98792.02;105230;1270;76384;-74
2022/08/13 11:38:52;;;;;;;10.00;9.10;;;;;;;24.93;100.00;98791.70;105226;1269;69229;-74
2022/08/13 11:41:19;;;;;;;9.90;9.00;;;;;;;25.17;100.00;98792.81;105202;1270;73234;-73
2022/08/13 11:43:48;;;;;;;9.70;8.90;;;;;;;25.31;100.00;98792.95;105210;1271;61406;-73
2022/08/13 11:46:15;;;;;;;8.60;7.80;;;;;;;25.32;100.00;98794.66;104981;1271;61786;-73
2022/08/13 11:48:42;;;;;;;8.40;7.70;;;;;;;25.29;100.00;98792.55;105213;1271;75907;-74